Time;durP1;ratioP1;P1;durP2;ratioP2;P2;SDS_P1;SDS_P2;PMS_P1;PMS_P2;Temp;Humidity;BMP_temperature;BMP_pressure;BME280_temperature;BME280_humidity;BME280_pressure;Samples;Min_cycle;Max_cycle;Signal;HPM_P1;HPM_P2
2024/03/31 00:00:06;;;;;;;;;;;;;;;20.64;44.81;93859.06;10465929;28;2781;-65
2024/03/31 00:05:06;;;;;;;;;;;;;;;20.63;44.73;93863.53;10465903;28;2744;-65
2024/03/31 00:10:06;;;;;;;;;;;;;;;20.62;44.70;93855.97;10463084;28;2893;-65
2024/03/31 00:15:07;;;;;;;;;;;;;;;20.60;44.24;93874.72;10461068;28;2816;-65
2024/03/31 00:20:07;;;;;;;;;;;;;;;20.60;44.23;93885.25;10463211;28;2589;-65
2024/03/31 00:25:07;;;;;;;;;;;;;;;20.59;44.45;93872.41;10466195;28;2816;-66
2024/03/31 00:30:07;;;;;;;;;;;;;;;20.58;44.15;93886.66;10460604;28;2747;-66
2024/03/31 00:35:08;;;;;;;;;;;;;;;20.58;44.19;93907.72;10462872;28;2500;-65
2024/03/31 00:40:08;;;;;;;;;;;;;;;20.57;44.12;93906.16;10463252;28;2540;-65
2024/03/31 00:45:08;;;;;;;;;;;;;;;20.56;43.95;93915.94;10460995;28;2749;-66
2024/03/31 00:50:08;;;;;;;;;;;;;;;20.54;43.83;93920.75;10465142;28;2830;-65
2024/03/31 00:55:09;;;;;;;;;;;;;;;20.53;43.60;93921.81;10463146;28;2808;-64
2024/03/31 01:00:09;;;;;;;;;;;;;;;20.53;43.62;93929.72;10461805;28;2830;-65
2024/03/31 01:05:09;;;;;;;;;;;;;;;20.52;43.75;93927.41;10458972;28;2752;-65
2024/03/31 01:10:10;;;;;;;;;;;;;;;20.51;43.54;93955.59;10461421;28;2843;-65
2024/03/31 01:15:10;;;;;;;;;;;;;;;20.50;43.61;93946.16;10461741;28;2680;-65
2024/03/31 01:20:10;;;;;;;;;;;;;;;20.50;43.50;93926.97;10458080;28;2685;-65
2024/03/31 01:25:11;;;;;;;;;;;;;;;20.49;43.45;93968.28;10463003;28;2718;-65
2024/03/31 01:30:13;;;;;;;;;;;;;;;20.49;43.05;94047.25;10457353;28;2776;-65
2024/03/31 01:35:13;;;;;;;;;;;;;;;20.47;42.95;94082.84;10461424;28;2823;-65
2024/03/31 01:40:14;;;;;;;;;;;;;;;20.46;42.94;94105.78;10459079;28;2615;-65
2024/03/31 01:45:14;;;;;;;;;;;;;;;20.45;42.94;94124.50;10462747;28;2773;-64
2024/03/31 01:50:14;;;;;;;;;;;;;;;20.44;42.77;94130.88;10489723;28;3026;-65
2024/03/31 01:55:15;;;;;;;;;;;;;;;20.41;42.52;94119.09;10459528;28;2870;-65
2024/03/31 02:00:15;;;;;;;;;;;;;;;20.41;42.66;94090.16;10461339;28;2814;-65
2024/03/31 02:05:16;;;;;;;;;;;;;;;20.40;42.69;94070.19;10470535;28;2802;-65
2024/03/31 02:10:16;;;;;;;;;;;;;;;20.39;42.62;94057.31;10473331;28;2278;-65
2024/03/31 02:15:16;;;;;;;;;;;;;;;20.38;42.70;94040.75;10482043;28;2803;-65
2024/03/31 02:20:17;;;;;;;;;;;;;;;20.38;42.54;94009.19;10465624;28;2790;-65
2024/03/31 02:25:20;;;;;;;;;;;;;;;20.38;42.52;94011.06;10468524;28;2741;-64
2024/03/31 02:30:20;;;;;;;;;;;;;;;20.38;42.45;94029.47;10470363;28;2846;-65
2024/03/31 02:35:20;;;;;;;;;;;;;;;20.36;42.27;94032.41;10467653;28;2771;-65
2024/03/31 02:40:21;;;;;;;;;;;;;;;20.36;42.32;94021.88;10470115;28;2512;-65
2024/03/31 02:45:21;;;;;;;;;;;;;;;20.35;42.28;94020.34;10463921;28;2838;-70
2024/03/31 02:50:21;;;;;;;;;;;;;;;20.35;42.23;94007.19;10469238;28;2743;-66
2024/03/31 02:55:21;;;;;;;;;;;;;;;20.34;42.22;93981.94;10470213;28;2603;-66
2024/03/31 03:00:22;;;;;;;;;;;;;;;20.33;41.97;93969.88;10471651;28;2913;-64
2024/03/31 03:05:22;;;;;;;;;;;;;;;20.34;41.94;93955.63;10495807;28;2603;-65
2024/03/31 03:10:22;;;;;;;;;;;;;;;20.32;41.86;93957.81;10469043;28;2866;-64
2024/03/31 03:15:22;;;;;;;;;;;;;;;20.33;42.05;93984.91;10463745;28;2735;-65
2024/03/31 03:20:23;;;;;;;;;;;;;;;20.33;41.87;93969.13;10463482;28;2775;-65
2024/03/31 03:25:23;;;;;;;;;;;;;;;20.32;42.10;93965.69;10454185;28;2966;-65
2024/03/31 03:30:23;;;;;;;;;;;;;;;20.31;41.99;93987.84;10461054;28;2779;-64
2024/03/31 03:35:26;;;;;;;;;;;;;;;20.31;41.95;93990.47;10468457;28;2961;-65
2024/03/31 03:40:26;;;;;;;;;;;;;;;20.30;41.87;93986.28;10461718;28;2857;-66
2024/03/31 03:45:26;;;;;;;;;;;;;;;20.30;41.94;93975.78;10463172;28;2728;-65
2024/03/31 03:50:26;;;;;;;;;;;;;;;20.30;41.98;93967.88;10468609;28;2539;-65
2024/03/31 03:55:27;;;;;;;;;;;;;;;20.29;41.70;93961.09;10464345;28;2799;-65
2024/03/31 04:00:27;;;;;;;;;;;;;;;20.30;41.84;93973.13;10460983;28;2657;-65
2024/03/31 04:05:27;;;;;;;;;;;;;;;20.29;41.68;93979.50;10465477;28;2737;-65
2024/03/31 04:10:28;;;;;;;;;;;;;;;20.32;41.26;93975.47;10464455;28;2822;-65
2024/03/31 04:15:28;;;;;;;;;;;;;;;20.34;41.55;93960.91;10464772;28;2792;-65
2024/03/31 04:20:28;;;;;;;;;;;;;;;20.40;41.10;93959.66;10462700;28;2850;-65
2024/03/31 04:25:28;;;;;;;;;;;;;;;20.47;40.98;93965.19;10466231;28;2796;-65
2024/03/31 04:30:29;;;;;;;;;;;;;;;20.55;40.90;93947.81;10462961;28;2881;-66
2024/03/31 04:35:33;;;;;;;;;;;;;;;20.60;40.68;93940.53;10461773;28;2653;-64
2024/03/31 04:40:33;;;;;;;;;;;;;;;20.63;40.81;93942.53;10461870;28;2715;-65
2024/03/31 04:45:36;;;;;;;;;;;;;;;20.66;40.74;93962.97;10460676;28;2620;-65
2024/03/31 04:50:37;;;;;;;;;;;;;;;20.73;40.31;93976.41;10464121;28;2797;-65
2024/03/31 04:55:37;;;;;;;;;;;;;;;20.78;40.08;93989.41;10459379;28;2832;-66
2024/03/31 05:00:37;;;;;;;;;;;;;;;20.82;39.99;93994.78;10462216;28;2714;-65
2024/03/31 05:05:37;;;;;;;;;;;;;;;20.86;39.98;94000.97;10464163;28;2748;-65
2024/03/31 05:10:38;;;;;;;;;;;;;;;20.87;39.86;94000.69;10461666;28;2803;-66
2024/03/31 05:15:38;;;;;;;;;;;;;;;20.91;39.48;93991.06;10459311;28;2808;-65
2024/03/31 05:20:41;;;;;;;;;;;;;;;20.92;39.52;94011.00;10460576;28;2776;-65
2024/03/31 05:25:41;;;;;;;;;;;;;;;20.94;39.32;94008.06;10463431;28;2594;-64
2024/03/31 05:30:41;;;;;;;;;;;;;;;20.96;39.20;94009.28;10457429;28;2755;-65
2024/03/31 05:35:41;;;;;;;;;;;;;;;20.98;39.47;94014.22;10481476;28;2823;-65
2024/03/31 05:40:42;;;;;;;;;;;;;;;20.99;38.90;94019.22;10468104;28;2786;-66
2024/03/31 05:45:42;;;;;;;;;;;;;;;20.99;39.31;94013.94;10466941;28;2734;-65
2024/03/31 05:50:44;;;;;;;;;;;;;;;21.04;38.78;94013.78;10469467;28;2869;-65
2024/03/31 05:55:44;;;;;;;;;;;;;;;21.06;38.96;94016.88;10485003;28;2647;-65
2024/03/31 06:00:45;;;;;;;;;;;;;;;21.08;39.00;94025.22;10463213;28;2781;-64
2024/03/31 06:05:45;;;;;;;;;;;;;;;21.10;38.92;94029.41;10467916;28;2901;-64
2024/03/31 06:10:45;;;;;;;;;;;;;;;21.14;38.57;94038.22;10466701;28;2729;-65
2024/03/31 06:15:46;;;;;;;;;;;;;;;21.14;38.66;94031.09;10465235;28;2398;-64
2024/03/31 06:20:46;;;;;;;;;;;;;;;21.18;38.54;94042.56;10467812;28;2817;-65
2024/03/31 06:25:55;;;;;;;;;;;;;;;21.17;38.52;94034.94;10465800;28;2743;-64
2024/03/31 06:30:55;;;;;;;;;;;;;;;21.22;38.27;94037.41;10465190;28;2487;-65
2024/03/31 06:35:55;;;;;;;;;;;;;;;21.24;38.48;94027.31;10466304;28;2814;-64
2024/03/31 06:40:55;;;;;;;;;;;;;;;21.24;38.17;94012.28;10465770;28;2634;-65
2024/03/31 06:45:56;;;;;;;;;;;;;;;21.24;38.01;94003.59;10464249;28;2855;-64
2024/03/31 06:50:56;;;;;;;;;;;;;;;21.26;38.08;94017.22;10467731;28;2581;-65
2024/03/31 06:55:56;;;;;;;;;;;;;;;21.26;38.51;94017.22;10467581;28;2875;-65
2024/03/31 07:00:57;;;;;;;;;;;;;;;21.27;38.40;94013.53;10495397;28;2585;-64
2024/03/31 07:05:57;;;;;;;;;;;;;;;21.26;38.42;94018.00;10462716;28;2810;-65
2024/03/31 07:10:57;;;;;;;;;;;;;;;21.31;38.69;94019.69;10466795;28;2727;-66
2024/03/31 07:15:57;;;;;;;;;;;;;;;21.33;38.49;94020.91;10459256;28;2732;-65
2024/03/31 07:20:58;;;;;;;;;;;;;;;21.36;38.37;94027.41;10462738;28;2796;-70
2024/03/31 07:26:00;;;;;;;;;;;;;;;21.36;38.75;94019.50;10466487;28;2366;-70
2024/03/31 07:31:00;;;;;;;;;;;;;;;21.34;38.88;94000.59;10492581;28;2529;-70
2024/03/31 07:36:00;;;;;;;;;;;;;;;21.37;38.54;94008.63;10466532;28;2707;-67
2024/03/31 07:41:00;;;;;;;;;;;;;;;21.40;38.82;94005.38;10464938;28;2687;-67
2024/03/31 07:46:01;;;;;;;;;;;;;;;21.41;38.51;93998.25;10463415;28;2559;-67
2024/03/31 07:51:01;;;;;;;;;;;;;;;21.40;38.76;93991.41;10461595;28;2775;-65
2024/03/31 07:56:01;;;;;;;;;;;;;;;21.42;38.92;93973.41;10455946;28;2787;-67
2024/03/31 08:01:04;;;;;;;;;;;;;;;21.52;39.18;93967.75;10459751;28;2606;-68
2024/03/31 08:06:04;;;;;;;;;;;;;;;21.60;39.05;93964.28;10460388;28;2756;-68
2024/03/31 08:11:04;;;;;;;;;;;;;;;21.69;39.05;93978.19;10460598;28;2848;-68
2024/03/31 08:16:05;;;;;;;;;;;;;;;21.70;38.50;93985.00;10459269;28;2588;-69
2024/03/31 08:21:05;;;;;;;;;;;;;;;21.74;38.71;93988.53;10491872;28;2843;-68
2024/03/31 08:26:05;;;;;;;;;;;;;;;21.78;38.89;93987.56;10458813;28;2512;-68
2024/03/31 08:31:05;;;;;;;;;;;;;;;21.93;38.78;93973.03;10463808;28;2729;-68
2024/03/31 08:36:06;;;;;;;;;;;;;;;21.98;39.40;93983.38;10463950;28;2862;-67
2024/03/31 08:41:09;;;;;;;;;;;;;;;22.14;38.99;93979.03;10465030;28;2550;-67
2024/03/31 08:46:09;;;;;;;;;;;;;;;22.18;39.44;93977.28;10465254;28;3020;-66
2024/03/31 08:51:09;;;;;;;;;;;;;;;22.30;38.35;93955.44;10468660;28;2542;-65
2024/03/31 08:56:10;;;;;;;;;;;;;;;22.44;38.39;93955.94;10456860;28;2814;-69
2024/03/31 09:01:11;;;;;;;;;;;;;;;22.46;38.60;93962.41;10462119;28;2871;-61
2024/03/31 09:06:11;;;;;;;;;;;;;;;22.43;38.94;93980.78;10462401;28;2815;-63
2024/03/31 09:11:12;;;;;;;;;;;;;;;22.49;38.60;93974.97;10464992;28;2653;-63
2024/03/31 09:16:12;;;;;;;;;;;;;;;22.51;38.73;93961.41;10472319;28;2801;-67
2024/03/31 09:21:12;;;;;;;;;;;;;;;22.46;39.25;93961.66;10470247;28;2550;-60
2024/03/31 09:26:13;;;;;;;;;;;;;;;22.50;39.05;93958.00;10475248;28;2719;-66
2024/03/31 09:31:19;;;;;;;;;;;;;;;22.49;39.20;93951.19;10466204;28;2757;-68
2024/03/31 09:36:19;;;;;;;;;;;;;;;22.39;39.68;93943.69;10469946;28;2865;-64
2024/03/31 09:41:19;;;;;;;;;;;;;;;22.47;39.35;93939.41;10468168;28;2802;-65
2024/03/31 09:46:20;;;;;;;;;;;;;;;22.44;39.34;93924.25;10469394;28;2795;-60
2024/03/31 09:51:20;;;;;;;;;;;;;;;22.42;39.11;93943.03;10474030;28;2940;-67
2024/03/31 09:56:21;;;;;;;;;;;;;;;22.44;38.35;93935.56;10469463;28;2774;-66
2024/03/31 10:01:21;;;;;;;;;;;;;;;22.36;37.83;93922.47;10464083;28;2576;-65
2024/03/31 10:06:21;;;;;;;;;;;;;;;22.27;38.05;93919.94;10464058;28;2750;-66
2024/03/31 10:11:22;;;;;;;;;;;;;;;22.19;38.13;93918.16;10463512;28;2780;-66
2024/03/31 10:16:22;;;;;;;;;;;;;;;22.15;38.13;93906.72;10464195;28;2579;-66
2024/03/31 10:21:23;;;;;;;;;;;;;;;22.06;38.84;93902.59;10484796;28;2859;-67
2024/03/31 10:26:23;;;;;;;;;;;;;;;21.96;38.55;93895.88;10452665;28;2749;-66
2024/03/31 10:31:24;;;;;;;;;;;;;;;21.88;39.07;93894.09;10499041;28;2794;-66
2024/03/31 10:36:25;;;;;;;;;;;;;;;21.80;39.65;93884.38;10468966;28;2838;-66
2024/03/31 10:41:25;;;;;;;;;;;;;;;21.80;40.36;93885.13;10469253;28;2906;-66
2024/03/31 10:46:25;;;;;;;;;;;;;;;21.78;39.79;93879.41;10450843;28;2613;-66
2024/03/31 10:51:26;;;;;;;;;;;;;;;21.77;40.92;93877.13;10469465;28;2591;-66
2024/03/31 10:56:26;;;;;;;;;;;;;;;21.77;40.66;93871.84;10483517;28;2831;-66
2024/03/31 11:01:27;;;;;;;;;;;;;;;21.74;41.21;93864.59;10466425;28;2843;-65
2024/03/31 11:06:27;;;;;;;;;;;;;;;21.77;41.08;93861.28;10466039;28;2834;-66
2024/03/31 11:11:27;;;;;;;;;;;;;;;21.79;41.56;93859.09;10466251;28;2903;-66
2024/03/31 11:16:27;;;;;;;;;;;;;;;21.79;41.80;93859.09;10478962;28;2846;-66
2024/03/31 11:21:31;;;;;;;;;;;;;;;21.75;42.68;93866.91;10463373;28;2768;-66
2024/03/31 11:26:33;;;;;;;;;;;;;;;21.74;42.37;93859.31;10477274;28;2858;-67
2024/03/31 11:31:35;;;;;;;;;;;;;;;21.73;42.04;93858.53;10453629;28;2715;-66
2024/03/31 11:36:36;;;;;;;;;;;;;;;21.75;42.07;93856.34;10466035;28;2819;-66
2024/03/31 11:41:36;;;;;;;;;;;;;;;21.75;41.98;93856.34;10464285;28;2790;-66
2024/03/31 11:46:36;;;;;;;;;;;;;;;21.70;40.01;93858.44;10459300;28;2586;-69
2024/03/31 11:51:37;;;;;;;;;;;;;;;21.54;38.42;93845.06;10432879;28;2852;-72
2024/03/31 11:56:38;;;;;;;;;;;;;;;21.39;38.90;93837.75;10465972;28;2790;-73
2024/03/31 12:01:39;;;;;;;;;;;;;;;21.33;37.23;93830.41;10460983;28;2680;-73
2024/03/31 12:06:39;;;;;;;;;;;;;;;21.19;37.42;93821.97;10465423;28;2838;-74
2024/03/31 12:11:43;;;;;;;;;;;;;;;21.10;38.15;93814.16;10465177;28;2869;-75
2024/03/31 12:16:44;;;;;;;;;;;;;;;21.05;37.43;93807.22;10448443;28;2783;-74
2024/03/31 12:21:45;;;;;;;;;;;;;;;21.02;37.35;93807.84;10461440;28;2803;-74
2024/03/31 12:26:45;;;;;;;;;;;;;;;21.00;36.31;93804.75;10460317;28;2815;-74
2024/03/31 12:31:45;;;;;;;;;;;;;;;20.92;36.17;93800.31;10465018;28;2610;-71
2024/03/31 12:36:45;;;;;;;;;;;;;;;20.91;37.63;93796.16;10464878;28;2748;-69
2024/03/31 12:41:46;;;;;;;;;;;;;;;21.04;38.38;93789.84;10445091;28;2810;-70
2024/03/31 12:46:46;;;;;;;;;;;;;;;21.15;38.96;93800.00;10443633;28;2798;-72
2024/03/31 12:51:55;;;;;;;;;;;;;;;21.22;40.24;93806.31;10460461;28;2861;-74
2024/03/31 12:56:56;;;;;;;;;;;;;;;21.28;42.15;93791.84;10450755;28;2794;-76
2024/03/31 13:01:59;;;;;;;;;;;;;;;21.34;41.97;93798.44;10462551;28;2610;-78
2024/03/31 13:06:59;;;;;;;;;;;;;;;21.33;41.93;93802.16;10465465;28;2834;-63
2024/03/31 13:12:00;;;;;;;;;;;;;;;21.33;42.11;93788.22;10462502;28;2791;-63
2024/03/31 13:17:00;;;;;;;;;;;;;;;21.39;43.39;93784.28;10461842;28;2955;-64
2024/03/31 13:22:02;;;;;;;;;;;;;;;21.36;45.48;93780.44;10465080;28;2732;-65
2024/03/31 13:27:02;;;;;;;;;;;;;;;21.37;46.44;93760.13;10462711;28;2741;-66
2024/03/31 13:32:03;;;;;;;;;;;;;;;21.42;45.86;93749.38;10450805;28;2732;-65
2024/03/31 13:37:06;;;;;;;;;;;;;;;21.39;46.33;93752.66;10475137;28;2792;-63
2024/03/31 13:42:07;;;;;;;;;;;;;;;21.40;45.38;93733.09;10460711;28;2783;-63
2024/03/31 13:47:07;;;;;;;;;;;;;;;21.37;46.91;93723.97;10462005;28;2939;-64
2024/03/31 13:52:07;;;;;;;;;;;;;;;21.37;46.41;93744.31;10463751;28;2851;-65
2024/03/31 13:57:08;;;;;;;;;;;;;;;21.35;47.79;93759.69;10462223;28;2701;-65
2024/03/31 14:02:11;;;;;;;;;;;;;;;21.32;47.81;93753.19;10462051;28;2770;-64
2024/03/31 14:07:11;;;;;;;;;;;;;;;21.34;45.24;93734.41;10451017;28;2733;-65
2024/03/31 14:12:11;;;;;;;;;;;;;;;21.28;44.01;93720.69;10448842;28;2797;-64
2024/03/31 14:17:12;;;;;;;;;;;;;;;21.24;43.67;93708.47;10468163;28;2650;-64
2024/03/31 14:22:12;;;;;;;;;;;;;;;21.21;44.52;93698.59;10464276;28;2541;-66
2024/03/31 14:27:13;;;;;;;;;;;;;;;21.20;44.58;93660.94;10498091;28;2725;-64
2024/03/31 14:32:15;;;;;;;;;;;;;;;21.20;44.35;93674.13;10461866;28;2790;-64
2024/03/31 14:37:16;;;;;;;;;;;;;;;21.19;44.21;93680.47;10468484;28;2624;-65
2024/03/31 14:42:16;;;;;;;;;;;;;;;21.19;44.08;93677.06;10461626;28;2587;-65
2024/03/31 14:47:16;;;;;;;;;;;;;;;21.19;44.53;93696.28;10469191;28;2567;-65
2024/03/31 14:52:16;;;;;;;;;;;;;;;21.19;44.21;93683.09;10460061;28;2754;-64
2024/03/31 14:57:17;;;;;;;;;;;;;;;21.21;44.75;93693.31;10461680;28;2878;-63
2024/03/31 15:02:17;;;;;;;;;;;;;;;21.20;44.51;93691.78;10479328;28;2794;-64
2024/03/31 15:07:17;;;;;;;;;;;;;;;21.18;44.52;93700.03;10464233;28;2464;-63
2024/03/31 15:12:17;;;;;;;;;;;;;;;21.19;44.37;93701.53;10456499;28;2952;-64
2024/03/31 15:17:18;;;;;;;;;;;;;;;21.16;44.38;93710.13;10466577;28;2592;-64
2024/03/31 15:22:18;;;;;;;;;;;;;;;21.15;44.27;93711.19;10467933;28;2873;-63
2024/03/31 15:27:18;;;;;;;;;;;;;;;21.15;44.60;93723.59;10463399;28;2571;-65
2024/03/31 15:32:19;;;;;;;;;;;;;;;21.14;44.63;93737.88;10463903;28;2612;-65
2024/03/31 15:37:19;;;;;;;;;;;;;;;21.14;44.64;93743.16;10450553;28;2497;-67
2024/03/31 15:42:19;;;;;;;;;;;;;;;21.13;44.58;93739.75;10462821;28;2545;-65
2024/03/31 15:47:20;;;;;;;;;;;;;;;21.14;44.83;93751.06;10467662;28;2528;-65
2024/03/31 15:52:21;;;;;;;;;;;;;;;21.12;44.68;93763.78;10464363;28;2563;-65
2024/03/31 15:57:21;;;;;;;;;;;;;;;21.10;44.62;93774.66;10445659;28;2339;-65
2024/03/31 16:02:22;;;;;;;;;;;;;;;21.07;44.74;93764.75;10494380;28;2608;-64
2024/03/31 16:07:22;;;;;;;;;;;;;;;21.07;44.86;93772.66;10462680;28;2545;-63
2024/03/31 16:12:22;;;;;;;;;;;;;;;21.04;45.02;93763.53;10464245;28;2308;-65
2024/03/31 16:17:23;;;;;;;;;;;;;;;21.04;44.91;93776.69;10464100;28;2627;-64
2024/03/31 16:22:24;;;;;;;;;;;;;;;21.03;44.56;93767.25;10458043;28;2571;-65
2024/03/31 16:27:24;;;;;;;;;;;;;;;21.03;44.73;93769.91;10493628;28;2401;-64
2024/03/31 16:32:25;;;;;;;;;;;;;;;21.04;44.55;93784.59;10464767;28;2644;-64
2024/03/31 16:37:28;;;;;;;;;;;;;;;21.02;44.63;93784.16;10463873;28;2401;-64
2024/03/31 16:42:28;;;;;;;;;;;;;;;21.01;44.83;93790.50;10488347;23;2563;-63
2024/03/31 16:52:44;;;;;;;;;;;;;;;20.97;44.75;93794.09;10453356;27;2699;-61
2024/03/31 16:57:45;;;;;;;;;;;;;;;20.98;44.52;93809.56;10456654;28;2554;-62
2024/03/31 17:02:45;;;;;;;;;;;;;;;20.96;44.48;93806.47;10456860;28;2569;-62
2024/03/31 17:07:45;;;;;;;;;;;;;;;20.95;44.63;93818.13;10457979;28;2545;-62
2024/03/31 17:12:45;;;;;;;;;;;;;;;20.95;44.82;93826.03;10473350;28;2690;-64
2024/03/31 17:17:46;;;;;;;;;;;;;;;20.94;44.67;93832.38;10458447;28;2482;-63
2024/03/31 17:22:46;;;;;;;;;;;;;;;20.93;44.61;93830.84;10458933;28;2600;-63
2024/03/31 17:27:46;;;;;;;;;;;;;;;20.93;44.61;93835.34;10456859;28;2462;-63
2024/03/31 17:32:47;;;;;;;;;;;;;;;20.92;44.48;93847.72;10458972;28;2736;-63
2024/03/31 17:37:47;;;;;;;;;;;;;;;20.91;44.67;93838.28;10464109;28;2537;-62
2024/03/31 17:42:48;;;;;;;;;;;;;;;20.92;44.69;93839.81;10461043;28;2609;-63
2024/03/31 17:47:48;;;;;;;;;;;;;;;20.94;44.62;93845.53;10461904;28;2109;-60
2024/03/31 17:52:48;;;;;;;;;;;;;;;20.97;44.60;93837.00;10482474;28;2334;-64
2024/03/31 17:57:49;;;;;;;;;;;;;;;20.99;44.63;93832.19;10502300;28;2630;-63
2024/03/31 18:02:49;;;;;;;;;;;;;;;21.02;44.54;93825.50;10453163;28;2572;-63
2024/03/31 18:07:49;;;;;;;;;;;;;;;21.06;44.69;93808.75;10451865;28;2579;-63
2024/03/31 18:12:49;;;;;;;;;;;;;;;21.08;44.41;93810.31;10457880;28;2746;-63
2024/03/31 18:17:50;;;;;;;;;;;;;;;21.10;43.93;93800.22;10458829;28;2605;-63
2024/03/31 18:22:50;;;;;;;;;;;;;;;21.12;43.86;93795.38;10467951;28;2597;-63
2024/03/31 18:27:51;;;;;;;;;;;;;;;21.13;43.84;93791.66;10455155;28;2626;-63
2024/03/31 18:32:51;;;;;;;;;;;;;;;21.15;44.02;93794.72;10442088;28;2630;-63
2024/03/31 18:37:51;;;;;;;;;;;;;;;21.18;43.65;93783.56;10453915;28;2577;-63
2024/03/31 18:42:52;;;;;;;;;;;;;;;21.18;43.65;93815.19;10453540;28;2457;-62
2024/03/31 18:47:52;;;;;;;;;;;;;;;21.19;43.23;93827.25;10469961;28;2615;-63
2024/03/31 18:52:52;;;;;;;;;;;;;;;21.19;43.36;93828.03;10468147;28;2409;-63
2024/03/31 18:57:54;;;;;;;;;;;;;;;21.17;43.45;93798.59;10480044;28;2626;-63
2024/03/31 19:02:54;;;;;;;;;;;;;;;21.18;43.02;93809.91;10468772;28;2533;-62
2024/03/31 19:07:55;;;;;;;;;;;;;;;21.21;42.49;93798.72;10466492;28;2603;-62
2024/03/31 19:12:55;;;;;;;;;;;;;;;21.20;43.42;93797.19;10450710;28;2502;-62
2024/03/31 19:17:55;;;;;;;;;;;;;;;21.22;42.78;93771.28;10466331;28;2592;-63
2024/03/31 19:22:55;;;;;;;;;;;;;;;21.23;42.33;93796.50;10467269;28;2520;-64
2024/03/31 19:27:56;;;;;;;;;;;;;;;21.20;43.65;93805.09;10465708;28;2582;-64
2024/03/31 19:32:56;;;;;;;;;;;;;;;21.22;42.10;93801.03;10467025;28;1509;-65
2024/03/31 19:37:56;;;;;;;;;;;;;;;21.22;42.19;93829.25;10486390;28;1889;-63
2024/03/31 19:42:56;;;;;;;;;;;;;;;21.22;42.13;93827.38;10451068;28;1928;-63
2024/03/31 19:47:57;;;;;;;;;;;;;;;21.21;42.35;93819.78;10490046;28;1933;-64
2024/03/31 19:52:59;;;;;;;;;;;;;;;21.23;42.11;93831.53;10486806;28;1378;-64
2024/03/31 19:58:00;;;;;;;;;;;;;;;21.25;41.79;93833.84;10486431;28;1558;-63
2024/03/31 20:03:00;;;;;;;;;;;;;;;21.26;41.51;93832.78;10482560;28;1452;-64
2024/03/31 20:08:00;;;;;;;;;;;;;;;21.27;41.39;93831.69;10483349;28;2773;-63
2024/03/31 20:13:00;;;;;;;;;;;;;;;21.26;41.35;93830.91;10492564;28;1773;-64
2024/03/31 20:18:01;;;;;;;;;;;;;;;21.23;41.95;93823.63;10453038;28;2502;-62
2024/03/31 20:23:01;;;;;;;;;;;;;;;21.22;42.40;93826.59;10467929;28;2671;-62
2024/03/31 20:28:02;;;;;;;;;;;;;;;21.25;41.88;93837.25;10467147;28;2657;-62
2024/03/31 20:33:02;;;;;;;;;;;;;;;21.19;43.36;93846.47;10463882;28;2549;-61
2024/03/31 20:38:02;;;;;;;;;;;;;;;21.18;42.60;93855.47;10465047;28;2433;-62
2024/03/31 20:43:03;;;;;;;;;;;;;;;21.16;42.67;93864.78;10466472;28;2364;-63
2024/03/31 20:48:03;;;;;;;;;;;;;;;21.11;42.64;93862.34;10447164;28;2278;-63
2024/03/31 20:53:03;;;;;;;;;;;;;;;21.08;42.12;93849.81;10463190;28;2396;-62
2024/03/31 20:58:04;;;;;;;;;;;;;;;21.03;42.70;93835.75;10465078;28;2610;-62
2024/03/31 21:03:05;;;;;;;;;;;;;;;20.99;42.90;93824.28;10462231;28;2419;-63
2024/03/31 21:08:05;;;;;;;;;;;;;;;20.95;43.42;93823.38;10447112;28;2688;-63
2024/03/31 21:13:05;;;;;;;;;;;;;;;20.91;43.57;93825.13;10432589;28;2561;-62
2024/03/31 21:18:06;;;;;;;;;;;;;;;20.89;43.44;93818.63;10446989;28;2553;-62
2024/03/31 21:23:06;;;;;;;;;;;;;;;20.87;43.84;93810.28;10462206;28;2542;-63
2024/03/31 21:28:06;;;;;;;;;;;;;;;20.85;43.92;93801.94;10439987;28;2572;-63
2024/03/31 21:33:06;;;;;;;;;;;;;;;20.82;44.22;93797.28;10462826;28;2498;-63
2024/03/31 21:38:07;;;;;;;;;;;;;;;20.80;44.17;93783.69;10466658;28;2546;-63
2024/03/31 21:43:07;;;;;;;;;;;;;;;20.77;44.04;93779.81;10459116;28;2638;-63
2024/03/31 21:48:08;;;;;;;;;;;;;;;20.77;44.21;93766.66;10470608;28;2452;-64
2024/03/31 21:53:08;;;;;;;;;;;;;;;20.76;44.10;93780.94;10435538;28;2406;-63
2024/03/31 21:58:09;;;;;;;;;;;;;;;20.76;44.40;93773.03;10478733;28;2616;-62
2024/03/31 22:03:09;;;;;;;;;;;;;;;20.74;44.34;93777.84;10474029;28;2542;-62
2024/03/31 22:08:09;;;;;;;;;;;;;;;20.72;44.28;93758.97;10476566;28;2545;-62
2024/03/31 22:13:10;;;;;;;;;;;;;;;20.72;44.38;93756.34;10471619;28;2533;-63
2024/03/31 22:18:10;;;;;;;;;;;;;;;20.72;44.49;93745.81;10475583;28;2600;-63
2024/03/31 22:23:10;;;;;;;;;;;;;;;20.71;44.22;93738.97;10457295;28;2530;-63
2024/03/31 22:28:10;;;;;;;;;;;;;;;20.70;44.22;93745.34;10482022;28;2515;-65
2024/03/31 22:33:11;;;;;;;;;;;;;;;20.69;44.54;93743.78;10458607;28;2327;-62
2024/03/31 22:38:11;;;;;;;;;;;;;;;20.68;44.25;93730.97;10451394;28;2368;-62
2024/03/31 22:43:12;;;;;;;;;;;;;;;20.67;44.43;93714.38;10470673;28;2635;-62
2024/03/31 22:48:13;;;;;;;;;;;;;;;20.67;44.17;93724.91;10455445;28;2610;-62
2024/03/31 22:53:13;;;;;;;;;;;;;;;20.66;44.07;93720.75;10459610;28;2514;-63
2024/03/31 22:58:14;;;;;;;;;;;;;;;20.66;44.64;93706.81;10470194;28;2538;-62
2024/03/31 23:03:14;;;;;;;;;;;;;;;20.65;44.32;93679.72;10474611;28;2471;-62
2024/03/31 23:08:14;;;;;;;;;;;;;;;20.63;44.33;93681.91;10484005;28;2558;-63
2024/03/31 23:13:14;;;;;;;;;;;;;;;20.64;44.33;93651.09;10457056;28;2522;-62
2024/03/31 23:18:15;;;;;;;;;;;;;;;20.63;44.50;93652.94;10468281;28;2392;-62
2024/03/31 23:23:15;;;;;;;;;;;;;;;20.63;44.62;93668.00;10470141;28;2479;-62
2024/03/31 23:28:15;;;;;;;;;;;;;;;20.62;44.29;93651.44;10464881;28;2605;-62
2024/03/31 23:33:15;;;;;;;;;;;;;;;20.62;44.58;93664.59;10456697;28;2463;-62
2024/03/31 23:38:16;;;;;;;;;;;;;;;20.61;44.53;93639.34;10470222;28;2403;-63
2024/03/31 23:43:16;;;;;;;;;;;;;;;20.60;44.28;93616.75;10480170;28;2574;-62
2024/03/31 23:48:16;;;;;;;;;;;;;;;20.61;44.39;93593.84;10467978;28;2538;-62
2024/03/31 23:53:16;;;;;;;;;;;;;;;20.60;44.53;93587.03;10465278;28;2458;-62
2024/03/31 23:58:17;;;;;;;;;;;;;;;20.58;44.63;93578.69;10435653;28;2527;-62
